ADDS METAR Data INFO
IDs: Format: Raw Decoded Include TAF

Data at: 0856 UTC 19 Jun 2018

KCTB 190838Z AUTO 01009KT 5SM BR SCT011 BKN018 OVC060 11/11 A3016 RMK AO2 RAE25 P0001 T01110111
KCTB 190818Z AUTO 36010KT 5SM -RA BR SCT007 BKN011 11/11 A3016 RMK AO2 P0001 T01110111
KCTB 190756Z AUTO 36010KT 4SM -RA BR BKN008 OVC019 11/11 A3015 RMK AO2 SLP204 P0005 T01110111
KCTB 190744Z AUTO 01007KT 4SM RA BR BKN008 BKN014 OVC022 11/11 A3016 RMK AO2 P0004 T01110111
KCTB 190736Z AUTO 36007KT 5SM -RA BR BKN010 BKN014 OVC022 11/11 A3016 RMK AO2 CIG 007V011 P0002 T01110111
KCTB 190707Z AUTO 02008KT 6SM -RA BR FEW019 BKN029 OVC035 11/11 A3016 RMK AO2 P0000 T01110111
KCTB 190656Z AUTO 02010KT 4SM -RA BR SCT027 OVC035 11/11 A3016 RMK AO2 SLP209 P0005 T01110111 401330111
KCTB 190556Z AUTO 02012KT 7SM -RA FEW023 BKN041 OVC049 11/11 A3016 RMK AO2 RAE0457B14 SLP208 P0001 60009 T01110111 10122 20111 56001
KCTB 190552Z AUTO 02012KT 8SM -RA SCT025 BKN041 OVC049 11/11 A3016 RMK AO2 RAE0457B14 P0001
KCTB 190545Z AUTO 03012KT 8SM -RA FEW021 BKN029 OVC044 11/11 A3016 RMK AO2 RAE0457B14 P0001 T01110111
KCTB 190456Z AUTO 03011KT 10SM -RA SCT033 SCT048 OVC065 11/11 A3016 RMK AO2 RAB33 SLP209 P0001 T01110111
KCTB 190411Z AUTO 02013KT 9SM SCT026 BKN055 OVC070 12/11 A3016 RMK AO2 P0001 T01170111
KCTB 190356Z AUTO 02012KT 9SM FEW018 BKN027 OVC037 12/11 A3016 RMK AO2 RAB01E55 SLP209 P0002 T01170111
KCTB 190342Z AUTO 02010KT 7SM -RA BKN025 BKN044 OVC055 12/11 A3016 RMK AO2 RAB01 P0002 T01170111
KCTB 190256Z AUTO 02012KT 8SM FEW035 BKN047 OVC065 12/11 A3016 RMK AO2 RAE54 SLP208 P0002 60005 T01170111 51004
KCTB 190156Z AUTO 02014KT 4SM -RA BR BKN036 BKN044 OVC050 12/12 A3016 RMK AO2 RAE08B28 SLP207 P0002 T01170117
KCTB 190056Z AUTO 04012KT 9SM -RA BKN041 OVC055 12/11 A3015 RMK AO2 RAE05B38 SLP204 P0001 T01220106
KCTB 182356Z AUTO 05015KT 8SM -RA OVC060 12/11 A3014 RMK AO2 RAB01E30B38 SLP203 P0001 60010 T01220106 10133 20122 51001
KCTB 182335Z AUTO 07014KT 10SM FEW015 SCT022 OVC065 13/11 A3015 RMK AO2 RAB01E30 P0000 T01280106
KCTB 182256Z AUTO 05011KT 10SM SCT015 BKN026 OVC044 13/12 A3014 RMK AO2 RAE42 SLP199 P0001 T01330117
KCTB 182241Z AUTO 04014KT 8SM -RA SCT017 BKN025 OVC060 13/12 A3014 RMK AO2 P0001 T01330117
KCTB 182156Z AUTO 06015KT 7SM -RA FEW013 SCT048 OVC060 13/11 A3015 RMK AO2 SLP200 P0002 T01330111
KCTB 182056Z AUTO 07014KT 5SM -RA BR FEW015 BKN037 OVC060 13/12 A3014 RMK AO2 RAB16 SLP200 P0002 60006 T01280117 51002
KCTB 181956Z AUTO 07016KT 8SM FEW013 BKN033 OVC050 13/11 A3014 RMK AO2 RAE16 SLP200 P0000 T01280111
KCTB 181951Z AUTO 08014G22KT 8SM SCT013 BKN033 OVC043 13/11 A3014 RMK AO2 RAE16 P0000
KCTB 181928Z AUTO 07018KT 7SM SCT012 BKN020 OVC037 12/11 A3014 RMK AO2 RAE16 P0000 T01220111
KCTB 181918Z AUTO 07015G22KT 9SM BKN012 BKN020 OVC037 12/12 A3014 RMK AO2 RAE16 P0000 T01220117
KCTB 181856Z AUTO 07015KT 4SM -RA BR FEW010 BKN022 OVC038 12/12 A3013 RMK AO2 SLP196 P0004 T01220117
KCTB 181848Z AUTO 06015G19KT 4SM -RA BR SCT012 BKN020 OVC038 13/12 A3013 RMK AO2 P0003 T01280117
KCTB 181817Z AUTO 06013KT 7SM -RA BKN011 BKN016 OVC049 13/12 A3013 RMK AO2 P0001 T01280117
KCTB 181802Z AUTO 06014KT 5SM -RA BR SCT009 BKN016 OVC039 12/12 A3014 RMK AO2 P0000 T01220117
KCTB 181756Z AUTO 06012KT 5SM -RA BR BKN010 BKN014 OVC020 12/12 A3014 RMK AO2 SLP196 P0004 60014 T01220117 10122 20111 53002
KCTB 181716Z AUTO 05010KT 4SM -RA BR SCT008 BKN013 OVC018 12/12 A3013 RMK AO2 P0003 T01220117
KCTB 181707Z AUTO 06010KT 4SM -RA BR SCT010 BKN013 OVC060 12/12 A3013 RMK AO2 P0002 T01220117
KCTB 181656Z AUTO 06010KT 4SM -RA BR SCT009 BKN019 OVC060 12/12 A3013 RMK AO2 RAB09 SLP195 P0003 T01220117
KCTB 181647Z AUTO 06010KT 5SM -RA BR FEW007 BKN020 OVC065 12/12 A3013 RMK AO2 RAB09 P0002 T01220117
KCTB 181556Z AUTO 06012KT 7SM FEW007 BKN050 OVC060 12/12 A3013 RMK AO2 RAE18B37E53 SLP194 P0001 T01170117
KCTB 181542Z AUTO 07012KT 5SM -RA BR FEW007 FEW048 OVC060 12/11 A3013 RMK AO2 RAE18B37 P0001 T01170111
KCTB 181456Z AUTO 06010KT 6SM -RA BR FEW028 OVC065 11/11 A3013 RMK AO2 SLP192 P0003 60006 T01110106 53003
KCTB 181356Z AUTO 07009KT 6SM -RA BR FEW026 BKN055 OVC075 11/11 A3012 RMK AO2 SLP189 P0002 T01110106
KCTB 181256Z AUTO 06006KT 9SM -RA SCT036 OVC065 12/10 A3012 RMK AO2 RAB05 SLP188 P0001 T01170100
KCTB 181156Z AUTO 06005KT 9SM SCT030 BKN037 OVC060 11/10 A3012 RMK AO2 RAB42E56 SLP188 P0000 60000 T01110100 10133 20111 53002
KCTB 181056Z AUTO 01007KT 10SM BKN041 OVC050 12/09 A3011 RMK AO2 SLP185 T01170094
KCTB 180956Z AUTO 36005KT 10SM BKN045 OVC055 12/09 A3011 RMK AO2 SLP187 T01170094
KCTB 180856Z AUTO 02006KT 10SM BKN055 OVC070 12/09 A3011 RMK AO2 SLP185 T01170094 55005
KCTB 180756Z AUTO 01006KT 10SM FEW060 OVC095 12/09 A3011 RMK AO2 SLP185 T01170094
KCTB 180656Z AUTO 02003KT 10SM BKN055 OVC095 13/09 A3013 RMK AO2 SLP187 T01280094 401780061
KCTB 180556Z AUTO 00000KT 10SM OVC100 13/09 A3013 RMK AO2 SLP189 T01330089 10167 20128 50004
KCTB 180456Z AUTO 10003KT 10SM OVC095 13/09 A3014 RMK AO2 SLP193 T01330089
KCTB 180356Z AUTO 11004KT 10SM OVC095 14/09 A3013 RMK AO2 SLP190 T01390089
KCTB 180256Z AUTO 08004KT 10SM OVC100 15/08 A3012 RMK AO2 SLP187 T01500083 55000
KCTB 180156Z AUTO 10003KT 10SM SCT075 OVC095 16/07 A3011 RMK AO2 SLP187 T01610072
KCTB 180056Z AUTO 13007KT 10SM SCT045 OVC100 16/07 A3011 RMK AO2 SLP189 T01610072
KCTB 172356Z AUTO 11005KT 10SM BKN065 OVC090 16/08 A3012 RMK AO2 SLP193 T01610078 10178 20150 56002
KCTB 172256Z AUTO 15004KT 10SM FEW033 BKN048 OVC090 16/08 A3012 RMK AO2 SLP193 T01610083
KCTB 172156Z AUTO 16007KT 10SM OVC065 15/09 A3012 RMK AO2 SLP195 T01500089